createdAt,value
2017-04-26T00:00:23.750Z,8.64
2017-04-26T00:01:37.603Z,8.6
2017-04-26T00:02:51.091Z,8.59
2017-04-26T00:04:05.307Z,8.59
2017-04-26T00:05:19.360Z,8.59
2017-04-26T00:06:33.082Z,8.59
2017-04-26T00:07:46.888Z,8.52
2017-04-26T00:09:00.592Z,8.46
2017-04-26T00:10:15.151Z,8.5
2017-04-26T00:11:28.715Z,8.53
2017-04-26T00:12:42.582Z,8.56
2017-04-26T00:13:56.558Z,8.52
2017-04-26T00:15:11.338Z,8.53
2017-04-26T00:16:25.844Z,8.54
2017-04-26T00:17:39.872Z,8.44
2017-04-26T00:18:53.563Z,8.5
2017-04-26T00:20:07.139Z,8.5
2017-04-26T00:21:20.967Z,8.49
2017-04-26T00:22:35.002Z,8.44
2017-04-26T00:23:48.466Z,8.45
2017-04-26T00:25:02.306Z,8.42
2017-04-26T00:26:48.071Z,8.49
2017-04-26T00:28:01.779Z,8.49
2017-04-26T00:29:15.179Z,8.42
2017-04-26T00:30:29.587Z,8.49
2017-04-26T00:31:44.246Z,8.44
2017-04-26T00:32:57.732Z,8.52
2017-04-26T00:34:11.093Z,8.49
2017-04-26T00:35:24.657Z,8.46
2017-04-26T00:36:38.484Z,8.45
2017-04-26T00:37:52.008Z,8.44
2017-04-26T00:39:05.734Z,8.46
2017-04-26T00:40:19.539Z,8.46
2017-04-26T00:41:53.268Z,8.44
2017-04-26T00:43:07.054Z,8.42
2017-04-26T00:44:20.454Z,8.44
2017-04-26T00:45:34.318Z,8.41
2017-04-26T00:46:47.940Z,8.42
2017-04-26T00:48:01.736Z,8.39
2017-04-26T00:49:15.423Z,8.38
2017-04-26T00:50:29.006Z,8.41
2017-04-26T00:51:42.715Z,8.45
2017-04-26T00:52:56.251Z,8.32
2017-04-26T00:54:09.631Z,8.31
2017-04-26T00:55:23.427Z,8.35
2017-04-26T00:56:37.358Z,8.39
2017-04-26T00:57:50.893Z,8.44
2017-04-26T00:59:04.570Z,8.44
2017-04-26T01:00:18.092Z,8.42
2017-04-26T01:01:31.854Z,8.46
2017-04-26T01:02:45.563Z,8.44
2017-04-26T01:03:58.971Z,8.42
2017-04-26T01:05:12.495Z,8.56
2017-04-26T01:07:54.532Z,8.42
2017-04-26T01:09:07.908Z,8.39
2017-04-26T01:10:21.427Z,8.39
2017-04-26T01:11:34.912Z,8.42
2017-04-26T01:12:48.478Z,8.32
2017-04-26T01:14:02.147Z,8.39
2017-04-26T01:15:15.751Z,8.35
2017-04-26T01:16:29.992Z,8.24
2017-04-26T01:17:43.593Z,8.21
2017-04-26T01:18:57.144Z,8.2
2017-04-26T01:20:11.181Z,8.26
2017-04-26T01:21:25.105Z,8.24
2017-04-26T01:22:38.747Z,8.2
2017-04-26T01:23:52.286Z,8.23
2017-04-26T01:25:05.877Z,8.2
2017-04-26T01:26:19.611Z,8.21
2017-04-26T01:27:33.430Z,8.08
2017-04-26T01:28:46.811Z,8.06
2017-04-26T01:30:00.310Z,8.14
2017-04-26T01:31:13.704Z,8.18
2017-04-26T01:32:27.593Z,8.13
2017-04-26T01:33:41.065Z,8.14
2017-04-26T01:34:54.912Z,8.14
2017-04-26T01:36:08.620Z,8.09
2017-04-26T01:37:22.111Z,8.09
2017-04-26T01:38:35.825Z,8.05
2017-04-26T01:39:49.291Z,8.16
2017-04-26T01:41:02.866Z,8.09
2017-04-26T01:42:16.373Z,8.06
2017-04-26T01:43:29.848Z,8.02
2017-04-26T01:44:43.613Z,8.02
2017-04-26T01:45:57.002Z,8.03
2017-04-26T01:47:10.947Z,8.06
2017-04-26T01:48:24.388Z,8.03
2017-04-26T01:49:37.899Z,8.03
2017-04-26T01:50:51.562Z,8.02
2017-04-26T01:52:05.039Z,8.03
2017-04-26T01:53:18.434Z,8.09
2017-04-26T01:54:32.346Z,8.01
2017-04-26T01:55:45.744Z,8.05
2017-04-26T01:56:59.514Z,8.09
2017-04-26T01:58:13.197Z,8.13
2017-04-26T01:59:26.814Z,8.16
2017-04-26T02:00:40.461Z,8.08
2017-04-26T02:01:54.748Z,8.06
2017-04-26T02:03:08.427Z,8.05
2017-04-26T02:04:21.964Z,8.05
2017-04-26T02:07:13.746Z,8.05
2017-04-26T02:08:27.245Z,8.03
2017-04-26T02:09:40.866Z,7.96
2017-04-26T02:10:54.377Z,8.05
2017-04-26T02:12:07.832Z,7.99
2017-04-26T02:13:21.347Z,8.05
2017-04-26T02:14:35.394Z,8.06
2017-04-26T02:15:49.482Z,8.17
2017-04-26T02:17:03.538Z,8.08
2017-04-26T02:18:17.053Z,8.13
2017-04-26T02:19:30.561Z,8.08
2017-04-26T02:20:44.779Z,8.05
2017-04-26T02:21:58.179Z,8.09
2017-04-26T02:23:11.658Z,8.06
2017-04-26T02:24:25.066Z,8.14
2017-04-26T02:25:38.940Z,8.17
2017-04-26T02:26:52.600Z,8.08
2017-04-26T02:28:41.893Z,8.05
2017-04-26T02:29:55.439Z,8.06
2017-04-26T02:31:08.936Z,8.03
2017-04-26T02:32:22.429Z,8.14
2017-04-26T02:33:35.839Z,8.09
2017-04-26T02:34:49.450Z,8.02
2017-04-26T02:36:03.487Z,8.09
2017-04-26T02:37:16.986Z,8.14
2017-04-26T02:38:30.390Z,8.06
2017-04-26T02:39:43.890Z,8.01
2017-04-26T02:40:57.818Z,8.08
2017-04-26T02:42:25.187Z,7.99
2017-04-26T02:43:38.650Z,8.03
2017-04-26T02:44:52.162Z,7.98
2017-04-26T02:46:05.594Z,7.91
2017-04-26T02:47:19.162Z,8.01
2017-04-26T02:48:32.532Z,7.98
2017-04-26T02:49:46.061Z,8.02
2017-04-26T02:51:00.180Z,7.96
2017-04-26T02:52:14.109Z,7.93
2017-04-26T02:53:27.815Z,7.9
2017-04-26T02:54:41.315Z,7.9
2017-04-26T02:55:54.681Z,7.84
2017-04-26T02:57:08.221Z,7.87
2017-04-26T02:58:22.097Z,7.84
2017-04-26T02:59:35.891Z,7.77
2017-04-26T03:00:50.182Z,7.83
2017-04-26T03:02:03.747Z,7.77
2017-04-26T03:03:17.144Z,7.84
2017-04-26T03:04:30.649Z,7.81
2017-04-26T03:05:44.035Z,7.84
2017-04-26T03:06:58.145Z,7.78
2017-04-26T03:08:11.931Z,7.85
2017-04-26T03:09:25.465Z,7.78
2017-04-26T03:10:38.858Z,7.8
2017-04-26T03:11:52.356Z,7.75
2017-04-26T03:13:06.115Z,7.77
2017-04-26T03:14:20.590Z,7.72
2017-04-26T03:15:34.374Z,7.67
2017-04-26T03:16:48.193Z,7.64
2017-04-26T03:18:01.700Z,7.66
2017-04-26T03:19:15.245Z,7.69
2017-04-26T03:20:28.804Z,7.69
2017-04-26T03:21:42.336Z,7.69
2017-04-26T03:22:56.021Z,7.59
2017-04-26T03:24:09.588Z,7.64
2017-04-26T03:25:22.974Z,7.74
2017-04-26T03:26:36.526Z,7.7
2017-04-26T03:27:50.331Z,7.67
2017-04-26T03:29:03.980Z,7.67
2017-04-26T03:30:17.366Z,7.78
2017-04-26T03:31:30.977Z,7.59
2017-04-26T03:32:44.825Z,7.69
2017-04-26T03:33:58.373Z,7.59
2017-04-26T03:35:11.757Z,7.75
2017-04-26T03:36:25.288Z,7.66
2017-04-26T03:37:39.047Z,7.62
2017-04-26T03:38:52.566Z,7.64
2017-04-26T03:40:06.159Z,7.58
2017-04-26T03:41:20.044Z,7.62
2017-04-26T03:42:33.462Z,7.59
2017-04-26T03:43:47.090Z,7.58
2017-04-26T03:45:01.056Z,7.62
2017-04-26T03:46:14.736Z,7.64
2017-04-26T03:47:28.552Z,7.66
2017-04-26T03:48:42.059Z,7.67
2017-04-26T03:49:55.888Z,7.58
2017-04-26T03:51:09.730Z,7.56
2017-04-26T03:52:23.159Z,7.72
2017-04-26T03:53:36.711Z,7.61
2017-04-26T03:54:50.161Z,7.59
2017-04-26T03:56:03.700Z,7.64
2017-04-26T03:57:17.449Z,7.64
2017-04-26T03:58:31.056Z,7.62
2017-04-26T03:59:44.516Z,7.61
2017-04-26T04:00:58.094Z,7.58
2017-04-26T04:02:11.893Z,7.59
2017-04-26T04:03:25.507Z,7.59
2017-04-26T04:04:38.960Z,7.55
2017-04-26T04:05:53.218Z,7.59
2017-04-26T04:07:07.005Z,7.61
2017-04-26T04:08:20.576Z,7.58
2017-04-26T04:09:34.356Z,7.58
2017-04-26T04:10:47.858Z,7.53
2017-04-26T04:12:01.951Z,7.47
2017-04-26T04:13:15.465Z,7.51
2017-04-26T04:14:29.183Z,7.58
2017-04-26T04:15:42.689Z,7.47
2017-04-26T04:16:56.210Z,7.5
2017-04-26T04:18:09.689Z,7.36
2017-04-26T04:19:23.181Z,7.48
2017-04-26T04:20:37.188Z,7.51
2017-04-26T04:21:50.994Z,7.39
2017-04-26T04:23:04.487Z,7.55
2017-04-26T04:24:17.906Z,7.51
2017-04-26T04:25:31.446Z,7.48
2017-04-26T04:26:44.965Z,7.55
2017-04-26T04:27:58.524Z,7.59
2017-04-26T04:29:11.909Z,7.61
2017-04-26T04:30:26.995Z,7.61
2017-04-26T04:31:42.728Z,7.64
2017-04-26T04:33:13.534Z,8.14
2017-04-26T04:34:27.298Z,8.11
2017-04-26T04:35:41.029Z,7.91
2017-04-26T04:36:54.577Z,7.77
2017-04-26T04:38:08.781Z,7.66
2017-04-26T04:39:22.798Z,7.74
2017-04-26T04:40:36.795Z,7.72
2017-04-26T04:41:51.322Z,7.72
2017-04-26T04:43:05.227Z,7.69
2017-04-26T04:44:18.620Z,7.72
2017-04-26T04:45:32.192Z,7.81
2017-04-26T04:46:45.601Z,7.83
2017-04-26T04:47:59.148Z,7.77
2017-04-26T04:49:12.841Z,7.84
2017-04-26T04:50:26.533Z,7.69
2017-04-26T04:51:40.242Z,7.69
2017-04-26T04:52:53.963Z,7.61
2017-04-26T04:54:07.984Z,7.72
2017-04-26T04:55:21.820Z,7.66
2017-04-26T04:56:35.349Z,7.69
2017-04-26T04:57:48.910Z,7.66
2017-04-26T04:59:03.044Z,7.8
2017-04-26T05:00:18.000Z,7.74
2017-04-26T05:01:31.556Z,7.78
2017-04-26T05:02:45.059Z,7.81
2017-04-26T05:03:59.517Z,7.81
2017-04-26T05:05:13.000Z,7.81
2017-04-26T05:06:27.245Z,7.62
2017-04-26T05:07:40.761Z,7.77
2017-04-26T05:08:54.318Z,7.85
2017-04-26T05:10:08.140Z,7.9
2017-04-26T05:11:21.885Z,7.84
2017-04-26T05:12:35.779Z,7.84
2017-04-26T05:13:49.194Z,7.98
2017-04-26T05:15:03.201Z,7.96
2017-04-26T05:16:16.604Z,8.01
2017-04-26T05:17:30.490Z,7.9
2017-04-26T05:18:43.913Z,7.98
2017-04-26T05:19:57.467Z,8.21
2017-04-26T05:21:10.872Z,8.13
2017-04-26T05:22:24.800Z,8.13
2017-04-26T05:23:38.264Z,8.24
2017-04-26T05:24:51.875Z,8.21
2017-04-26T05:26:05.298Z,8.21
2017-04-26T05:27:18.817Z,8.32
2017-04-26T05:28:32.550Z,8.35
2017-04-26T05:29:46.181Z,8.18
2017-04-26T05:30:59.917Z,8.42
2017-04-26T05:32:13.409Z,8.44
2017-04-26T05:33:26.815Z,8.45
2017-04-26T05:34:40.329Z,8.46
2017-04-26T05:35:53.780Z,8.56
2017-04-26T05:37:07.699Z,8.59
2017-04-26T05:38:21.928Z,8.69
2017-04-26T05:39:35.482Z,8.74
2017-04-26T05:40:49.674Z,8.75
2017-04-26T05:42:03.186Z,8.75
2017-04-26T05:43:17.076Z,8.71
2017-04-26T05:44:30.666Z,8.81
2017-04-26T05:45:44.073Z,8.9
2017-04-26T05:47:09.248Z,8.93
2017-04-26T05:48:22.734Z,8.9
2017-04-26T05:49:36.246Z,8.99
2017-04-26T05:50:49.731Z,8.9
2017-04-26T05:52:03.569Z,8.89
2017-04-26T05:53:16.971Z,8.78
2017-04-26T05:54:30.628Z,8.75
2017-04-26T05:55:44.017Z,8.79
2017-04-26T05:56:57.634Z,8.84
2017-04-26T05:58:11.383Z,8.89
2017-04-26T05:59:25.232Z,9.11
2017-04-26T06:00:38.680Z,9.05
2017-04-26T06:01:52.587Z,9.19
2017-04-26T06:03:06.302Z,9.16
2017-04-26T06:04:19.837Z,9.12
2017-04-26T06:05:33.275Z,9.05
2017-04-26T06:06:46.852Z,8.97
2017-04-26T06:08:00.279Z,8.96
2017-04-26T06:09:13.957Z,9.02
2017-04-26T06:10:27.431Z,8.95
2017-04-26T06:11:41.340Z,9.08
2017-04-26T06:12:54.938Z,8.99
2017-04-26T06:14:08.449Z,9.05
2017-04-26T06:15:23.035Z,9.16
2017-04-26T06:16:37.081Z,9.26
2017-04-26T06:17:50.678Z,9.33
2017-04-26T06:19:05.017Z,9.34
2017-04-26T06:20:18.491Z,9.26
2017-04-26T06:21:32.848Z,9.18
2017-04-26T06:22:46.723Z,9.19
2017-04-26T06:24:00.434Z,9.02
2017-04-26T06:25:13.894Z,8.81
2017-04-26T06:26:27.852Z,8.84
2017-04-26T06:27:41.271Z,8.74
2017-04-26T06:28:55.598Z,8.86
2017-04-26T06:30:09.080Z,8.92
2017-04-26T06:31:22.650Z,9.11
2017-04-26T06:32:36.073Z,8.96
2017-04-26T06:33:49.748Z,9.05
2017-04-26T06:35:03.191Z,8.84
2017-04-26T06:36:16.789Z,9.03
2017-04-26T06:37:30.900Z,9.08
2017-04-26T06:38:44.443Z,9.18
2017-04-26T06:39:58.216Z,9.24
2017-04-26T06:41:24.900Z,9.37
2017-04-26T06:42:38.283Z,9.37
2017-04-26T06:43:51.888Z,9.33
2017-04-26T06:45:05.634Z,9.36
2017-04-26T06:46:19.194Z,9.49
2017-04-26T06:47:33.012Z,9.36
2017-04-26T06:48:47.644Z,9.34
2017-04-26T06:52:45.929Z,9.48
2017-04-26T06:53:59.525Z,9.48
2017-04-26T06:55:13.143Z,9.59
2017-04-26T06:56:26.985Z,9.55
2017-04-26T06:57:40.929Z,9.49
2017-04-26T06:58:55.762Z,9.33
2017-04-26T07:00:10.164Z,9.47
2017-04-26T07:01:23.573Z,9.59
2017-04-26T07:02:37.208Z,9.74
2017-04-26T07:03:51.535Z,9.74
2017-04-26T07:05:05.096Z,9.76
2017-04-26T07:06:18.853Z,9.87
2017-04-26T07:07:32.844Z,9.76
2017-04-26T07:08:46.613Z,9.88
2017-04-26T07:10:00.569Z,9.95
2017-04-26T07:11:14.271Z,10.05
2017-04-26T07:13:01.598Z,10.05
2017-04-26T07:14:15.375Z,10.02
2017-04-26T07:18:19.525Z,10
2017-04-26T07:19:33.875Z,9.74
2017-04-26T07:20:47.647Z,9.95
2017-04-26T07:22:01.236Z,10.07
2017-04-26T07:23:15.124Z,10.25
2017-04-26T07:24:28.600Z,10.36
2017-04-26T07:25:42.267Z,10.42
2017-04-26T07:26:55.696Z,10.45
2017-04-26T07:28:09.529Z,10.34
2017-04-26T07:29:22.949Z,10.61
2017-04-26T07:30:36.564Z,10.65
2017-04-26T07:31:49.995Z,10.8
2017-04-26T07:33:03.674Z,10.62
2017-04-26T07:34:17.153Z,10.65
2017-04-26T07:35:30.700Z,10.41
2017-04-26T07:36:44.165Z,10.46
2017-04-26T07:37:58.350Z,10.49
2017-04-26T07:39:12.115Z,10.59
2017-04-26T07:40:25.847Z,10.69
2017-04-26T07:41:39.889Z,10.76
2017-04-26T07:43:06.834Z,10.77
2017-04-26T07:44:20.451Z,10.49
2017-04-26T07:45:34.176Z,10.64
2017-04-26T07:46:47.722Z,10.8
2017-04-26T07:48:01.314Z,10.79
2017-04-26T07:49:14.732Z,10.75
2017-04-26T07:50:29.345Z,10.72
2017-04-26T07:51:43.105Z,10.76
2017-04-26T07:52:56.617Z,10.65
2017-04-26T07:54:10.054Z,10.84
2017-04-26T07:55:23.603Z,11.12
2017-04-26T07:56:52.236Z,11.13
2017-04-26T07:58:05.774Z,10.92
2017-04-26T07:59:19.811Z,10.87
2017-04-26T08:00:33.843Z,11.07
2017-04-26T08:01:47.378Z,11.05
2017-04-26T08:03:01.262Z,10.86
2017-04-26T08:04:15.185Z,10.65
2017-04-26T08:05:29.342Z,10.59
2017-04-26T08:06:43.112Z,10.8
2017-04-26T08:07:56.731Z,10.65
2017-04-26T08:09:10.492Z,10.65
2017-04-26T08:10:24.060Z,10.8
2017-04-26T08:11:37.853Z,10.92
2017-04-26T08:12:51.628Z,10.95
2017-04-26T08:14:05.312Z,11.12
2017-04-26T08:15:19.113Z,11.08
2017-04-26T08:16:32.679Z,11.18
2017-04-26T08:17:56.061Z,10.97
2017-04-26T08:19:09.477Z,10.92
2017-04-26T08:20:23.029Z,11.07
2017-04-26T08:21:36.895Z,11.33
2017-04-26T08:22:50.432Z,11.44
2017-04-26T08:24:04.145Z,11.52
2017-04-26T08:25:17.692Z,11.45
2017-04-26T08:26:32.048Z,11.55
2017-04-26T08:27:45.651Z,11.38
2017-04-26T08:28:59.664Z,11.45
2017-04-26T08:30:13.187Z,11.26
2017-04-26T08:31:26.592Z,11.26
2017-04-26T08:32:40.100Z,11.49
2017-04-26T08:33:53.902Z,11.51
2017-04-26T08:35:07.568Z,11.7
2017-04-26T08:36:21.281Z,11.71
2017-04-26T08:37:35.218Z,11.76
2017-04-26T08:38:48.699Z,11.65
2017-04-26T08:40:02.205Z,11.51
2017-04-26T08:41:15.928Z,11.53
2017-04-26T08:42:29.458Z,11.51
2017-04-26T08:43:43.192Z,11.56
2017-04-26T08:45:20.627Z,11.7
2017-04-26T08:46:45.816Z,11.78
2017-04-26T08:47:59.289Z,11.85
2017-04-26T08:49:12.858Z,11.59
2017-04-26T08:50:26.524Z,11.6
2017-04-26T08:51:40.607Z,11.77
2017-04-26T08:52:54.022Z,11.86
2017-04-26T08:54:08.922Z,11.85
2017-04-26T08:55:22.465Z,11.83
2017-04-26T08:56:36.340Z,11.86
2017-04-26T08:57:49.769Z,11.77
2017-04-26T08:59:03.308Z,11.89
2017-04-26T09:00:17.117Z,11.78
2017-04-26T09:01:30.738Z,12.03
2017-04-26T09:02:44.506Z,12.23
2017-04-26T09:03:58.140Z,12.45
2017-04-26T09:05:12.172Z,12.45
2017-04-26T09:06:26.409Z,12.39
2017-04-26T09:07:39.893Z,12.4
2017-04-26T09:08:53.835Z,12.69
2017-04-26T09:10:07.410Z,12.78
2017-04-26T09:11:20.972Z,12.9
2017-04-26T09:12:35.024Z,12.88
2017-04-26T09:13:48.577Z,13.01
2017-04-26T09:15:02.270Z,13.11
2017-04-26T09:16:16.493Z,13.01
2017-04-26T09:17:30.325Z,13.01
2017-04-26T09:18:44.382Z,13.01
2017-04-26T09:19:58.010Z,13.23
2017-04-26T09:21:11.979Z,13.26
2017-04-26T09:22:25.398Z,13.09
2017-04-26T09:23:39.013Z,13.01
2017-04-26T09:24:52.750Z,13.24
2017-04-26T09:26:06.454Z,13.4
2017-04-26T09:27:19.876Z,13.4
2017-04-26T09:28:33.445Z,13.42
2017-04-26T09:29:47.233Z,13.49
2017-04-26T09:31:01.740Z,13.52
2017-04-26T09:32:15.260Z,13.2
2017-04-26T09:33:28.863Z,13.2
2017-04-26T09:34:42.350Z,13.33
2017-04-26T09:35:55.893Z,13.54
2017-04-26T09:37:10.029Z,13.54
2017-04-26T09:38:23.587Z,13.46
2017-04-26T09:39:37.048Z,13.42
2017-04-26T09:40:50.590Z,13.42
2017-04-26T09:42:04.057Z,13.6
2017-04-26T09:43:18.189Z,13.47
2017-04-26T09:44:31.953Z,13.2
2017-04-26T09:45:46.140Z,13.33
2017-04-26T09:47:00.198Z,13.6
2017-04-26T09:48:13.791Z,13.55
2017-04-26T09:49:27.617Z,13.7
2017-04-26T09:50:41.110Z,13.91
2017-04-26T09:51:54.567Z,13.89
2017-04-26T09:53:08.299Z,13.8
2017-04-26T09:54:21.720Z,13.71
2017-04-26T09:55:35.559Z,13.85
2017-04-26T09:56:49.376Z,13.65
2017-04-26T09:58:03.079Z,13.64
2017-04-26T09:59:16.525Z,13.64
2017-04-26T10:00:30.077Z,13.76
2017-04-26T10:02:28.880Z,13.79
2017-04-26T10:03:42.590Z,13.91
2017-04-26T10:04:56.898Z,14.19
2017-04-26T10:06:10.637Z,14.23
2017-04-26T10:07:24.328Z,14.2
2017-04-26T10:08:38.261Z,14.23
2017-04-26T10:09:51.666Z,14.05
2017-04-26T10:11:05.207Z,14.11
2017-04-26T10:12:18.642Z,14.01
2017-04-26T10:13:32.776Z,14.12
2017-04-26T10:15:18.791Z,13.95
2017-04-26T10:16:32.667Z,13.83
2017-04-26T10:17:46.124Z,13.62
2017-04-26T10:19:00.379Z,13.12
2017-04-26T10:20:14.557Z,12.7
2017-04-26T10:21:28.139Z,12.7
2017-04-26T10:22:42.008Z,12.68
2017-04-26T10:23:55.935Z,12.8
2017-04-26T10:25:10.091Z,12.54
2017-04-26T10:26:44.117Z,12.43
2017-04-26T10:28:55.836Z,12.66
2017-04-26T10:30:48.374Z,12.68
2017-04-26T10:32:12.254Z,12.47
2017-04-26T10:33:25.750Z,12.39
2017-04-26T10:34:39.551Z,12.29
2017-04-26T10:35:54.705Z,12.29
2017-04-26T10:37:08.786Z,12.11
2017-04-26T10:38:22.620Z,12.14
2017-04-26T10:39:36.236Z,12.33
2017-04-26T10:40:50.000Z,12.45
2017-04-26T10:42:03.668Z,12.37
2017-04-26T10:43:17.203Z,12.4
2017-04-26T10:44:30.861Z,12.21
2017-04-26T10:45:44.377Z,12.2
2017-04-26T10:46:57.930Z,12.08
2017-04-26T10:48:11.998Z,11.99
2017-04-26T10:49:25.644Z,11.89
2017-04-26T10:50:39.432Z,12
2017-04-26T10:51:53.277Z,12.08
2017-04-26T10:53:06.698Z,12.1
2017-04-26T10:54:20.208Z,12.07
2017-04-26T10:55:33.664Z,12.25
2017-04-26T10:58:19.887Z,12.55
2017-04-26T10:59:33.448Z,12.7
2017-04-26T11:00:47.222Z,12.66
2017-04-26T11:02:01.374Z,12.95
2017-04-26T11:03:15.074Z,13.05
2017-04-26T11:04:28.566Z,13.03
2017-04-26T11:05:42.825Z,13.03
2017-04-26T11:06:56.228Z,13.12
2017-04-26T11:08:10.472Z,13.2
2017-04-26T11:09:24.581Z,13.2
2017-04-26T11:10:38.825Z,13.27
2017-04-26T11:11:54.136Z,13.13
2017-04-26T11:13:07.775Z,13.17
2017-04-26T11:14:21.714Z,13.17
2017-04-26T11:15:35.657Z,13.31
2017-04-26T11:16:50.900Z,13.47
2017-04-26T11:18:04.858Z,13.67
2017-04-26T11:19:18.626Z,13.71
2017-04-26T11:20:32.589Z,13.6
2017-04-26T11:21:46.418Z,13.54
2017-04-26T11:23:01.840Z,13.73
2017-04-26T11:24:15.637Z,13.83
2017-04-26T11:25:29.290Z,13.7
2017-04-26T11:26:43.322Z,13.82
2017-04-26T11:27:57.288Z,13.87
2017-04-26T11:29:10.826Z,13.85
2017-04-26T11:30:24.978Z,13.79
2017-04-26T11:31:39.524Z,13.49
2017-04-26T11:32:53.135Z,13.42
2017-04-26T11:34:06.603Z,13.49
2017-04-26T11:35:20.930Z,13.6
2017-04-26T11:36:35.500Z,13.6
2017-04-26T11:37:50.385Z,13.73
2017-04-26T11:39:03.909Z,13.83
2017-04-26T11:40:18.517Z,14.05
2017-04-26T11:41:32.186Z,14.03
2017-04-26T11:42:46.461Z,13.89
2017-04-26T11:44:00.469Z,14.05
2017-04-26T11:45:14.253Z,14.11
2017-04-26T11:46:28.250Z,13.94
2017-04-26T11:47:42.310Z,14.08
2017-04-26T11:48:55.988Z,14.11
2017-04-26T11:51:11.382Z,14.31
2017-04-26T11:53:08.036Z,14.2
2017-04-26T11:54:23.051Z,14.34
2017-04-26T11:55:37.024Z,14.31
2017-04-26T11:56:52.567Z,14.26
2017-04-26T11:58:07.026Z,14.34
2017-04-26T11:59:21.591Z,13.87
2017-04-26T12:00:35.850Z,13.98
2017-04-26T12:01:50.352Z,14.03
2017-04-26T12:03:04.806Z,14.33
2017-04-26T12:04:18.940Z,14.33
2017-04-26T12:05:33.827Z,14.25
2017-04-26T12:06:48.734Z,14.26
2017-04-26T12:08:02.735Z,14.26
2017-04-26T12:09:18.300Z,14.34
2017-04-26T12:10:32.616Z,14.31
2017-04-26T12:11:47.160Z,14.22
2017-04-26T12:13:02.176Z,14.26
2017-04-26T12:14:17.374Z,14.23
2017-04-26T12:15:31.797Z,14.23
2017-04-26T12:17:02.337Z,14.36
2017-04-26T12:18:16.997Z,14.49
2017-04-26T12:19:33.198Z,14.45
2017-04-26T12:20:47.699Z,14.53
2017-04-26T12:22:02.240Z,14.31
2017-04-26T12:23:16.682Z,14.4
2017-04-26T12:24:31.395Z,14.82
2017-04-26T12:25:56.182Z,14.79
2017-04-26T12:27:10.911Z,14.82
2017-04-26T12:28:25.123Z,14.97
2017-04-26T12:29:39.489Z,15.18
2017-04-26T12:30:54.786Z,15.08
2017-04-26T12:32:09.103Z,15.1
2017-04-26T12:33:24.340Z,15.12
2017-04-26T12:34:38.392Z,14.81
2017-04-26T12:35:52.478Z,14.77
2017-04-26T12:37:06.684Z,14.68
2017-04-26T12:38:21.340Z,14.56
2017-04-26T12:39:36.241Z,14.55
2017-04-26T12:40:51.146Z,14.52
2017-04-26T12:42:05.647Z,14.53
2017-04-26T12:43:20.921Z,14.55
2017-04-26T12:44:35.731Z,14.56
2017-04-26T12:45:51.073Z,14.55
2017-04-26T12:47:05.716Z,14.22
2017-04-26T12:48:19.907Z,14.11
2017-04-26T12:49:35.166Z,14.11
2017-04-26T12:50:50.749Z,13.79
2017-04-26T12:52:05.072Z,13.75
2017-04-26T12:53:19.205Z,13.67
2017-04-26T12:54:33.648Z,13.76
2017-04-26T12:55:48.672Z,13.85
2017-04-26T12:57:03.458Z,14.07
2017-04-26T12:58:18.412Z,14.31
2017-04-26T12:59:32.454Z,14.49
2017-04-26T13:00:48.619Z,14.52
2017-04-26T13:02:03.024Z,14.55
2017-04-26T13:03:17.821Z,14.56
2017-04-26T13:04:32.762Z,14.78
2017-04-26T13:05:48.615Z,14.9
2017-04-26T13:07:03.345Z,14.82
2017-04-26T13:08:18.877Z,14.53
2017-04-26T13:09:33.653Z,14.61
2017-04-26T13:10:48.830Z,14.61
2017-04-26T13:12:02.898Z,14.73
2017-04-26T13:13:17.432Z,14.67
2017-04-26T13:14:32.329Z,14.53
2017-04-26T13:15:47.933Z,14.56
2017-04-26T13:17:02.236Z,14.67
2017-04-26T13:18:16.810Z,14.9
2017-04-26T13:19:31.607Z,15.07
2017-04-26T13:20:46.750Z,15.07
2017-04-26T13:22:00.722Z,15.05
2017-04-26T13:23:15.611Z,14.97
2017-04-26T13:24:30.425Z,14.81
2017-04-26T13:25:45.212Z,14.96
2017-04-26T13:27:01.824Z,14.77
2017-04-26T13:28:16.260Z,14.92
2017-04-26T13:29:31.192Z,15.05
2017-04-26T13:30:47.093Z,14.94
2017-04-26T13:32:02.676Z,14.92
2017-04-26T13:34:04.463Z,14.81
2017-04-26T13:35:20.771Z,14.82
2017-04-26T13:36:35.485Z,14.71
2017-04-26T13:37:50.637Z,14.66
2017-04-26T13:39:04.772Z,14.48
2017-04-26T13:40:34.534Z,14.34
2017-04-26T13:41:49.702Z,14.18
2017-04-26T13:43:03.692Z,14.05
2017-04-26T13:44:18.817Z,13.98
2017-04-26T13:45:34.735Z,13.76
2017-04-26T13:46:50.128Z,13.73
2017-04-26T13:48:04.926Z,13.75
2017-04-26T13:49:20.397Z,13.64
2017-04-26T13:50:35.978Z,13.65
2017-04-26T13:52:07.410Z,13.58
2017-04-26T13:53:22.017Z,13.55
2017-04-26T13:54:36.954Z,13.54
2017-04-26T13:55:51.261Z,13.55
2017-04-26T13:57:05.673Z,13.54
2017-04-26T13:58:21.221Z,13.39
2017-04-26T13:59:36.412Z,13.42
2017-04-26T14:00:51.011Z,13.4
2017-04-26T14:02:06.140Z,13.4
2017-04-26T14:03:20.666Z,13.46
2017-04-26T14:04:35.022Z,13.37
2017-04-26T14:05:50.804Z,13.27
2017-04-26T14:07:05.266Z,13.31
2017-04-26T14:08:20.178Z,13.42
2017-04-26T14:09:35.310Z,13.42
2017-04-26T14:10:51.041Z,13.47
2017-04-26T14:12:06.231Z,13.43
2017-04-26T14:13:21.531Z,13.57
2017-04-26T14:14:36.550Z,13.58
2017-04-26T14:15:52.190Z,13.6
2017-04-26T14:17:06.478Z,13.43
2017-04-26T14:18:21.984Z,13.5
2017-04-26T14:19:36.485Z,13.49
2017-04-26T14:20:50.784Z,13.65
2017-04-26T14:22:05.137Z,13.75
2017-04-26T14:23:19.846Z,13.76
2017-04-26T14:24:33.915Z,13.7
2017-04-26T14:25:49.984Z,13.76
2017-04-26T14:27:04.394Z,13.76
2017-04-26T14:28:18.959Z,13.62
2017-04-26T14:29:33.294Z,13.64
2017-04-26T14:30:47.736Z,13.58
2017-04-26T14:32:02.306Z,13.65
2017-04-26T14:33:17.638Z,13.76
2017-04-26T14:34:32.187Z,13.73
2017-04-26T14:35:48.090Z,13.79
2017-04-26T14:37:02.947Z,13.7
2017-04-26T14:38:17.753Z,13.91
2017-04-26T14:39:33.075Z,13.82
2017-04-26T14:40:47.790Z,13.8
2017-04-26T14:42:02.422Z,13.95
2017-04-26T14:43:17.068Z,13.95
2017-04-26T14:44:31.140Z,13.87
2017-04-26T14:46:05.106Z,13.71
2017-04-26T14:47:20.010Z,13.83
2017-04-26T14:48:34.542Z,13.83
2017-04-26T14:49:49.139Z,13.93
2017-04-26T14:51:18.631Z,13.95
2017-04-26T14:52:33.447Z,14.01
2017-04-26T14:53:49.684Z,14.07
2017-04-26T14:55:10.140Z,14.18
2017-04-26T14:56:26.856Z,14.07
2017-04-26T14:57:41.068Z,14.05
2017-04-26T14:58:55.755Z,14.05
2017-04-26T15:00:10.083Z,13.97
2017-04-26T15:01:24.424Z,13.8
2017-04-26T15:02:39.583Z,13.7
2017-04-26T15:03:53.990Z,13.7
2017-04-26T15:05:08.830Z,13.73
2017-04-26T15:06:23.746Z,13.7
2017-04-26T15:07:38.237Z,13.75
2017-04-26T15:08:52.864Z,13.7
2017-04-26T15:10:08.100Z,13.57
2017-04-26T15:11:23.228Z,13.6
2017-04-26T15:12:38.949Z,13.47
2017-04-26T15:13:53.823Z,13.5
2017-04-26T15:15:08.156Z,13.54
2017-04-26T15:16:24.331Z,13.57
2017-04-26T15:17:39.554Z,13.54
2017-04-26T15:18:54.477Z,13.6
2017-04-26T15:20:09.926Z,13.76
2017-04-26T15:21:24.599Z,13.7
2017-04-26T15:22:39.712Z,13.76
2017-04-26T15:23:53.786Z,13.75
2017-04-26T15:25:09.045Z,13.79
2017-04-26T15:26:23.873Z,13.78
2017-04-26T15:27:37.988Z,13.6
2017-04-26T15:28:51.919Z,13.37
2017-04-26T15:30:06.323Z,13.3
2017-04-26T15:31:21.827Z,13.26
2017-04-26T15:32:36.505Z,13.27
2017-04-26T15:33:50.829Z,13.21
2017-04-26T15:35:05.035Z,13.16
2017-04-26T15:36:19.483Z,13.06
2017-04-26T15:37:34.425Z,13.03
2017-04-26T15:38:49.858Z,12.98
2017-04-26T15:40:04.894Z,12.99
2017-04-26T15:41:19.559Z,12.84
2017-04-26T15:42:35.356Z,12.86
2017-04-26T15:43:57.670Z,12.73
2017-04-26T15:45:14.349Z,12.76
2017-04-26T15:46:28.862Z,12.68
2017-04-26T15:47:44.420Z,12.66
2017-04-26T15:48:59.686Z,12.57
2017-04-26T15:50:15.225Z,12.63
2017-04-26T15:51:30.135Z,12.57
2017-04-26T15:52:45.304Z,12.58
2017-04-26T15:54:01.027Z,12.45
2017-04-26T15:55:16.538Z,12.45
2017-04-26T15:56:32.926Z,12.39
2017-04-26T15:57:48.535Z,12.55
2017-04-26T15:59:03.342Z,12.5
2017-04-26T16:00:17.580Z,12.36
2017-04-26T16:01:33.361Z,12.33
2017-04-26T16:03:36.557Z,12.37
2017-04-26T16:04:52.068Z,12.3
2017-04-26T16:06:06.724Z,12.25
2017-04-26T16:07:21.810Z,12.26
2017-04-26T16:08:36.060Z,12.2
2017-04-26T16:09:51.503Z,12.25
2017-04-26T16:11:06.885Z,12.23
2017-04-26T16:12:21.623Z,12.21
2017-04-26T16:13:36.496Z,12.18
2017-04-26T16:14:51.604Z,12.25
2017-04-26T16:16:06.225Z,12.21
2017-04-26T16:17:42.488Z,12.29
2017-04-26T16:19:26.411Z,12.43
2017-04-26T16:20:41.721Z,12.43
2017-04-26T16:21:57.220Z,12.44
2017-04-26T16:23:12.822Z,12.45
2017-04-26T16:24:27.557Z,12.45
2017-04-26T16:25:43.083Z,12.55
2017-04-26T16:26:58.869Z,12.55
2017-04-26T16:28:13.710Z,12.54
2017-04-26T16:29:28.850Z,12.51
2017-04-26T16:30:44.062Z,12.45
2017-04-26T16:31:59.220Z,12.55
2017-04-26T16:33:14.619Z,12.51
2017-04-26T16:34:29.409Z,12.44